Time;durP1;ratioP1;P1;durP2;ratioP2;P2;SDS_P1;SDS_P2;PMS_P1;PMS_P2;Temp;Humidity;BMP_temperature;BMP_pressure;BME280_temperature;BME280_humidity;BME280_pressure;Samples;Min_cycle;Max_cycle;Signal;HPM_P1;HPM_P2
2021/08/15 00:02:12;;;;;;;4.07;3.50;;;;;;;;;;2616486;54;20026;-70
2021/08/15 00:04:37;;;;;;;4.25;2.78;;;;;;;;;;2616323;39;20636;-69
2021/08/15 00:07:03;;;;;;;3.15;2.85;;;;;;;;;;2616367;54;20019;-69
2021/08/15 00:09:28;;;;;;;3.78;2.95;;;;;;;;;;2616426;54;20034;-69
2021/08/15 00:11:53;;;;;;;3.28;2.70;;;;;;;;;;2616332;54;20022;-68
2021/08/15 00:14:19;;;;;;;5.40;3.20;;;;;;;;;;2616154;54;20026;-68
2021/08/15 00:16:44;;;;;;;4.18;3.17;;;;;;;;;;2616273;54;20045;-68
2021/08/15 00:19:10;;;;;;;3.80;3.40;;;;;;;;;;2616253;54;20011;-68
2021/08/15 00:21:38;;;;;;;4.00;3.30;;;;;;;;;;2615499;54;20027;-70
2021/08/15 00:24:05;;;;;;;5.72;3.42;;;;;;;;;;2616371;54;20034;-71
2021/08/15 00:26:31;;;;;;;4.05;3.53;;;;;;;;;;2616241;54;20107;-70
2021/08/15 00:28:56;;;;;;;4.38;3.05;;;;;;;;;;2616617;54;20034;-70
2021/08/15 00:31:26;;;;;;;3.20;2.90;;;;;;;;;;2616132;54;20022;-69
2021/08/15 00:33:51;;;;;;;4.50;3.30;;;;;;;;;;2616542;39;20345;-69
2021/08/15 00:36:16;;;;;;;5.32;3.80;;;;;;;;;;2616169;54;20017;-69
2021/08/15 00:38:42;;;;;;;4.55;3.67;;;;;;;;;;2616031;54;20029;-69
2021/08/15 00:41:07;;;;;;;4.60;3.67;;;;;;;;;;2616067;54;20015;-69
2021/08/15 00:43:32;;;;;;;3.90;2.63;;;;;;;;;;2616249;54;20046;-70
2021/08/15 00:45:58;;;;;;;4.68;3.33;;;;;;;;;;2616204;54;20015;-71
2021/08/15 00:48:24;;;;;;;4.97;3.30;;;;;;;;;;2615775;54;20030;-70
2021/08/15 00:50:49;;;;;;;4.03;3.20;;;;;;;;;;2616381;54;20045;-71
2021/08/15 00:53:15;;;;;;;5.22;3.13;;;;;;;;;;2616304;54;20014;-70
2021/08/15 00:55:41;;;;;;;3.33;2.63;;;;;;;;;;2616214;39;20436;-70
2021/08/15 00:58:07;;;;;;;2.88;2.13;;;;;;;;;;2616353;54;20018;-70
2021/08/15 01:00:36;;;;;;;2.80;2.28;;;;;;;;;;2615824;54;20134;-70
2021/08/15 01:03:02;;;;;;;3.72;3.15;;;;;;;;;;2616371;54;20015;-71
2021/08/15 01:05:29;;;;;;;3.00;2.47;;;;;;;;;;2616079;54;20507;-70
2021/08/15 01:07:54;;;;;;;4.65;3.03;;;;;;;;;;2616257;54;20028;-70
2021/08/15 01:10:20;;;;;;;3.22;2.72;;;;;;;;;;2616362;54;20010;-70
2021/08/15 01:12:46;;;;;;;6.40;2.97;;;;;;;;;;2616148;54;20010;-70
2021/08/15 01:15:12;;;;;;;3.88;2.70;;;;;;;;;;2616025;54;20113;-70
2021/08/15 01:17:41;;;;;;;3.20;2.40;;;;;;;;;;2616132;54;20032;-69
2021/08/15 01:20:08;;;;;;;3.13;2.00;;;;;;;;;;2616170;54;20018;-70
2021/08/15 01:22:39;;;;;;;3.72;2.95;;;;;;;;;;2615952;54;20045;-70
2021/08/15 01:25:06;;;;;;;;;;;;;;;;;;2616134;54;20110;-69
2021/08/15 01:27:38;;;;;;;3.65;2.50;;;;;;;;;;2616118;54;20042;-70
2021/08/15 01:30:07;;;;;;;3.78;2.03;;;;;;;;;;2615966;54;20066;-70
2021/08/15 01:32:32;;;;;;;4.32;2.63;;;;;;;;;;2616188;54;20109;-70
2021/08/15 01:35:00;;;;;;;3.28;2.30;;;;;;;;;;2616269;54;20022;-70
2021/08/15 01:37:26;;;;;;;2.42;1.70;;;;;;;;;;2616182;39;20638;-70
2021/08/15 01:39:52;;;;;;;3.58;2.05;;;;;;;;;;2615968;54;20058;-69
2021/08/15 01:42:18;;;;;;;2.47;1.83;;;;;;;;;;2616220;54;20495;-70
2021/08/15 01:44:43;;;;;;;3.03;1.85;;;;;;;;;;2616227;54;20015;-69
2021/08/15 01:47:09;;;;;;;3.10;1.98;;;;;;;;;;2615921;54;20018;-69
2021/08/15 01:49:34;;;;;;;4.35;2.53;;;;;;;;;;2616077;54;20015;-70
2021/08/15 01:51:59;;;;;;;2.63;1.95;;;;;;;;;;2616233;54;20496;-70
2021/08/15 01:54:25;;;;;;;4.32;2.47;;;;;;;;;;2615642;54;20022;-69
2021/08/15 01:56:50;;;;;;;2.90;1.77;;;;;;;;;;2615794;54;20564;-68
2021/08/15 01:59:16;;;;;;;2.55;1.77;;;;;;;;;;2615943;54;20007;-68
2021/08/15 02:01:41;;;;;;;3.00;2.22;;;;;;;;;;2616170;39;20350;-68
2021/08/15 02:04:06;;;;;;;3.85;2.30;;;;;;;;;;2616082;54;20037;-69
2021/08/15 02:06:32;;;;;;;3.08;2.08;;;;;;;;;;2615728;54;20010;-69
2021/08/15 02:08:58;;;;;;;3.72;2.38;;;;;;;;;;2615792;54;20517;-71
2021/08/15 02:11:23;;;;;;;4.70;2.92;;;;;;;;;;2615913;47;19999;-69
2021/08/15 02:13:49;;;;;;;2.47;1.75;;;;;;;;;;2616016;54;20034;-70
2021/08/15 02:16:15;;;;;;;3.67;2.45;;;;;;;;;;2616627;39;20345;-72
2021/08/15 02:18:40;;;;;;;3.38;1.65;;;;;;;;;;2615827;54;20031;-72
2021/08/15 02:21:06;;;;;;;3.08;2.00;;;;;;;;;;2616216;54;20022;-72
2021/08/15 02:23:32;;;;;;;2.70;1.77;;;;;;;;;;2616037;54;20094;-71
2021/08/15 02:25:58;;;;;;;4.20;2.45;;;;;;;;;;2615830;54;20022;-73
2021/08/15 02:28:23;;;;;;;3.10;1.73;;;;;;;;;;2615595;54;20026;-72
2021/08/15 02:30:48;;;;;;;4.50;2.47;;;;;;;;;;2615916;54;20021;-72
2021/08/15 02:33:14;;;;;;;2.60;1.90;;;;;;;;;;2616078;54;20045;-71
2021/08/15 02:35:40;;;;;;;4.80;2.25;;;;;;;;;;2615597;54;20027;-72
2021/08/15 02:38:05;;;;;;;4.43;2.10;;;;;;;;;;2615848;54;20022;-72
2021/08/15 02:40:31;;;;;;;3.33;2.17;;;;;;;;;;2615268;54;20050;-72
2021/08/15 02:42:56;;;;;;;3.63;2.40;;;;;;;;;;2615464;47;20133;-72
2021/08/15 02:45:24;;;;;;;4.30;2.78;;;;;;;;;;2615778;54;20010;-70
2021/08/15 02:47:53;;;;;;;3.50;2.47;;;;;;;;;;2615754;54;20015;-70
2021/08/15 02:50:20;;;;;;;4.25;2.30;;;;;;;;;;2613806;54;20092;-72
2021/08/15 02:52:45;;;;;;;3.80;2.50;;;;;;;;;;2615842;54;20011;-72
2021/08/15 02:55:11;;;;;;;2.92;1.95;;;;;;;;;;2615854;54;20018;-73
2021/08/15 02:57:37;;;;;;;2.55;1.92;;;;;;;;;;2614821;47;20023;-70
2021/08/15 03:00:05;;;;;;;4.38;2.30;;;;;;;;;;2615902;54;20023;-71
2021/08/15 03:02:30;;;;;;;3.40;1.70;;;;;;;;;;2615546;54;20011;-71
2021/08/15 03:04:55;;;;;;;2.90;1.90;;;;;;;;;;2616522;54;20018;-72
2021/08/15 03:07:21;;;;;;;3.08;1.83;;;;;;;;;;2616163;47;20022;-71
2021/08/15 03:09:47;;;;;;;4.53;2.35;;;;;;;;;;2616800;54;20050;-71
2021/08/15 03:12:13;;;;;;;12.70;1.85;;;;;;;;;;2616639;54;20011;-71
2021/08/15 03:14:38;;;;;;;3.15;1.60;;;;;;;;;;2616505;54;20014;-70
2021/08/15 03:17:08;;;;;;;2.05;1.60;;;;;;;;;;2615679;54;20026;-71
2021/08/15 03:19:35;;;;;;;2.93;1.73;;;;;;;;;;2615816;54;20022;-71
2021/08/15 03:22:01;;;;;;;3.20;2.15;;;;;;;;;;2615681;54;20130;-71
2021/08/15 03:24:26;;;;;;;3.30;2.00;;;;;;;;;;2616257;54;20011;-70
2021/08/15 03:26:52;;;;;;;3.05;1.88;;;;;;;;;;2616220;47;20038;-70
2021/08/15 03:29:17;;;;;;;4.95;2.60;;;;;;;;;;2616706;54;20009;-70
2021/08/15 03:31:44;;;;;;;2.83;2.03;;;;;;;;;;2616374;54;20050;-70
2021/08/15 03:34:11;;;;;;;2.53;1.58;;;;;;;;;;2616442;54;20022;-70
2021/08/15 03:36:36;;;;;;;2.78;1.90;;;;;;;;;;2616449;54;20054;-71
2021/08/15 03:39:03;;;;;;;2.20;1.45;;;;;;;;;;2614900;54;20030;-72
2021/08/15 03:41:29;;;;;;;3.25;2.05;;;;;;;;;;2616083;54;20682;-72
2021/08/15 03:43:54;;;;;;;3.95;2.55;;;;;;;;;;2615885;54;20026;-72
2021/08/15 03:46:20;;;;;;;2.85;1.63;;;;;;;;;;2616570;54;20014;-71
2021/08/15 03:48:45;;;;;;;4.35;1.95;;;;;;;;;;2616117;54;20022;-71
2021/08/15 03:51:11;;;;;;;4.25;2.42;;;;;;;;;;2616117;54;20501;-71
2021/08/15 03:53:36;;;;;;;2.05;1.50;;;;;;;;;;2616495;54;20053;-72
2021/08/15 03:56:02;;;;;;;3.03;2.00;;;;;;;;;;2616273;54;20011;-71
2021/08/15 03:58:30;;;;;;;3.05;2.00;;;;;;;;;;2616053;54;20018;-71
2021/08/15 04:00:56;;;;;;;2.40;1.27;;;;;;;;;;2616439;54;20042;-71
2021/08/15 04:03:22;;;;;;;4.03;2.42;;;;;;;;;;2616440;54;20022;-71
2021/08/15 04:05:47;;;;;;;5.05;2.67;;;;;;;;;;2616514;54;20018;-71
2021/08/15 04:08:13;;;;;;;2.40;1.67;;;;;;;;;;2616674;39;20396;-71
2021/08/15 04:10:38;;;;;;;3.63;2.17;;;;;;;;;;2616378;54;20026;-71
2021/08/15 04:13:04;;;;;;;2.65;1.80;;;;;;;;;;2616533;54;20002;-71
2021/08/15 04:15:30;;;;;;;3.20;2.10;;;;;;;;;;2615853;54;20024;-71
2021/08/15 04:17:55;;;;;;;6.38;1.90;;;;;;;;;;2616343;47;20493;-71
2021/08/15 04:20:21;;;;;;;3.47;2.40;;;;;;;;;;2616282;54;20014;-71
2021/08/15 04:22:47;;;;;;;4.70;2.47;;;;;;;;;;2616648;54;20011;-71
2021/08/15 04:25:12;;;;;;;5.90;1.63;;;;;;;;;;2616097;54;20042;-70
2021/08/15 04:27:38;;;;;;;2.45;1.58;;;;;;;;;;2616277;54;20102;-69
2021/08/15 04:30:06;;;;;;;3.70;2.28;;;;;;;;;;2616386;54;20037;-70
2021/08/15 04:32:31;;;;;;;4.97;2.58;;;;;;;;;;2615908;54;20033;-70
2021/08/15 04:34:56;;;;;;;2.05;1.40;;;;;;;;;;2616442;54;20019;-69
2021/08/15 04:37:22;;;;;;;2.85;1.83;;;;;;;;;;2616013;54;20093;-70
2021/08/15 04:39:47;;;;;;;2.35;1.63;;;;;;;;;;2616357;54;20465;-70
2021/08/15 04:42:13;;;;;;;5.85;2.28;;;;;;;;;;2616294;54;20560;-70
2021/08/15 04:44:38;;;;;;;3.75;2.40;;;;;;;;;;2616341;54;20041;-70
2021/08/15 04:47:04;;;;;;;5.07;2.38;;;;;;;;;;2616404;47;20022;-69
2021/08/15 04:49:30;;;;;;;3.75;2.13;;;;;;;;;;2615651;54;20034;-69
2021/08/15 04:51:55;;;;;;;3.60;1.88;;;;;;;;;;2616443;54;20046;-69
2021/08/15 04:54:26;;;;;;;5.35;2.05;;;;;;;;;;2615942;54;20026;-69
2021/08/15 04:56:53;;;;;;;2.15;1.48;;;;;;;;;;2615711;54;20019;-69
2021/08/15 04:59:18;;;;;;;3.30;1.98;;;;;;;;;;2616068;54;20042;-69
2021/08/15 05:01:44;;;;;;;2.03;1.33;;;;;;;;;;2616600;39;20447;-69
2021/08/15 05:04:09;;;;;;;2.95;1.40;;;;;;;;;;2616257;54;20512;-69
2021/08/15 05:06:34;;;;;;;2.33;1.52;;;;;;;;;;2616030;54;20057;-69
2021/08/15 05:09:00;;;;;;;2.53;1.73;;;;;;;;;;2616112;54;20117;-69
2021/08/15 05:11:25;;;;;;;2.65;1.85;;;;;;;;;;2616223;54;20003;-69
2021/08/15 05:13:51;;;;;;;2.83;1.85;;;;;;;;;;2616115;54;20010;-69
2021/08/15 05:16:16;;;;;;;3.17;2.08;;;;;;;;;;2616260;54;20019;-69
2021/08/15 05:18:41;;;;;;;5.78;2.33;;;;;;;;;;2616321;54;20002;-69
2021/08/15 05:21:07;;;;;;;3.50;2.10;;;;;;;;;;2616316;47;20034;-69
2021/08/15 05:23:33;;;;;;;2.42;1.50;;;;;;;;;;2616078;54;20026;-69
2021/08/15 05:25:58;;;;;;;4.13;2.63;;;;;;;;;;2615935;54;20056;-69
2021/08/15 05:28:23;;;;;;;2.58;1.70;;;;;;;;;;2615900;54;20010;-69
2021/08/15 05:30:49;;;;;;;2.53;1.80;;;;;;;;;;2616130;54;20019;-69
2021/08/15 05:33:14;;;;;;;2.53;1.70;;;;;;;;;;2616821;31;20414;-69
2021/08/15 05:35:40;;;;;;;1.60;1.02;;;;;;;;;;2616077;54;20065;-69
2021/08/15 05:38:05;;;;;;;3.00;2.13;;;;;;;;;;2615980;54;20023;-69
2021/08/15 05:40:30;;;;;;;3.13;1.80;;;;;;;;;;2616090;54;20011;-70
2021/08/15 05:42:56;;;;;;;2.33;1.73;;;;;;;;;;2614475;47;20054;-68
2021/08/15 05:45:21;;;;;;;3.38;2.20;;;;;;;;;;2616020;54;20026;-69
2021/08/15 05:47:47;;;;;;;5.28;2.45;;;;;;;;;;2615888;54;20023;-69
2021/08/15 05:50:12;;;;;;;2.80;1.75;;;;;;;;;;2615982;54;20090;-69
2021/08/15 05:52:37;;;;;;;2.92;2.13;;;;;;;;;;2615989;54;20057;-68
2021/08/15 05:55:05;;;;;;;3.42;2.17;;;;;;;;;;2616941;31;20441;-68
2021/08/15 05:57:30;;;;;;;2.28;1.55;;;;;;;;;;2616292;54;20003;-68
2021/08/15 05:59:56;;;;;;;4.67;2.50;;;;;;;;;;2616001;54;20087;-68
2021/08/15 06:02:21;;;;;;;3.15;1.98;;;;;;;;;;2615748;54;20030;-69
2021/08/15 06:04:46;;;;;;;2.47;1.52;;;;;;;;;;2616191;54;20468;-69
2021/08/15 06:07:13;;;;;;;4.43;1.67;;;;;;;;;;2616047;54;20015;-69
2021/08/15 06:09:38;;;;;;;3.40;2.10;;;;;;;;;;2614996;54;20049;-69
2021/08/15 06:12:05;;;;;;;2.92;1.48;;;;;;;;;;2616106;54;20019;-69
2021/08/15 06:14:32;;;;;;;6.07;1.73;;;;;;;;;;2616558;31;20430;-69
2021/08/15 06:16:57;;;;;;;2.30;1.70;;;;;;;;;;2616236;54;20014;-69
2021/08/15 06:19:23;;;;;;;3.67;2.13;;;;;;;;;;2614433;54;20023;-69
2021/08/15 06:21:48;;;;;;;2.72;2.00;;;;;;;;;;2615928;54;20018;-68
2021/08/15 06:24:13;;;;;;;3.28;2.45;;;;;;;;;;2615965;54;20038;-69
2021/08/15 06:26:39;;;;;;;3.10;1.77;;;;;;;;;;2615881;54;20083;-69
2021/08/15 06:29:04;;;;;;;3.60;2.70;;;;;;;;;;2616506;31;20421;-69
2021/08/15 06:31:30;;;;;;;3.15;1.90;;;;;;;;;;2615878;54;20038;-69
2021/08/15 06:33:55;;;;;;;2.17;1.45;;;;;;;;;;2615314;54;20091;-69
2021/08/15 06:36:20;;;;;;;2.20;1.42;;;;;;;;;;2616004;47;20023;-69
2021/08/15 06:38:46;;;;;;;3.78;2.65;;;;;;;;;;2614188;54;20023;-68
2021/08/15 06:41:11;;;;;;;2.95;1.75;;;;;;;;;;2616471;54;20023;-69
2021/08/15 06:43:37;;;;;;;4.43;2.08;;;;;;;;;;2616214;54;20505;-69
2021/08/15 06:46:02;;;;;;;2.33;1.45;;;;;;;;;;2616752;54;20015;-69
2021/08/15 06:48:28;;;;;;;3.13;2.00;;;;;;;;;;2616172;54;20026;-69
2021/08/15 06:50:57;;;;;;;2.60;1.80;;;;;;;;;;2616091;54;20014;-70
2021/08/15 06:53:23;;;;;;;3.00;2.08;;;;;;;;;;2616371;54;20011;-69
2021/08/15 06:55:48;;;;;;;3.13;2.08;;;;;;;;;;2616544;39;20411;-69
2021/08/15 06:58:14;;;;;;;3.85;1.90;;;;;;;;;;2614976;54;20512;-70
2021/08/15 07:00:39;;;;;;;3.03;2.08;;;;;;;;;;2615497;54;20106;-69
2021/08/15 07:03:07;;;;;;;3.55;2.10;;;;;;;;;;2614800;54;20030;-69
2021/08/15 07:05:32;;;;;;;3.55;1.90;;;;;;;;;;2615583;54;20046;-68
2021/08/15 07:07:58;;;;;;;6.13;2.50;;;;;;;;;;2616518;47;20019;-70
2021/08/15 07:10:24;;;;;;;2.85;1.95;;;;;;;;;;2616337;54;20110;-71
2021/08/15 07:12:53;;;;;;;3.25;2.35;;;;;;;;;;2616417;54;20025;-70
2021/08/15 07:15:20;;;;;;;3.50;2.33;;;;;;;;;;2616395;39;20357;-70
2021/08/15 07:17:45;;;;;;;2.92;1.90;;;;;;;;;;2616673;54;20057;-70
2021/08/15 07:20:11;;;;;;;5.43;2.25;;;;;;;;;;2616510;54;20010;-70
2021/08/15 07:22:37;;;;;;;3.30;2.30;;;;;;;;;;2616266;54;20106;-71
2021/08/15 07:25:04;;;;;;;2.55;1.80;;;;;;;;;;2616602;54;20018;-70
2021/08/15 07:27:30;;;;;;;2.78;2.17;;;;;;;;;;2616218;54;20139;-70
2021/08/15 07:29:56;;;;;;;2.85;1.83;;;;;;;;;;2616331;54;20024;-71
2021/08/15 07:32:21;;;;;;;6.03;3.53;;;;;;;;;;2615046;54;20018;-71
2021/08/15 07:34:47;;;;;;;4.28;2.22;;;;;;;;;;2615365;54;20019;-71
2021/08/15 07:37:12;;;;;;;3.40;1.98;;;;;;;;;;2615417;54;20015;-72
2021/08/15 07:39:38;;;;;;;4.78;2.28;;;;;;;;;;2614672;54;20014;-70
2021/08/15 07:42:04;;;;;;;2.75;1.90;;;;;;;;;;2615449;39;20356;-72
2021/08/15 07:44:29;;;;;;;3.30;1.95;;;;;;;;;;2615472;31;20421;-69
2021/08/15 07:46:55;;;;;;;3.40;2.35;;;;;;;;;;2615258;54;20800;-71
2021/08/15 07:49:20;;;;;;;2.83;1.83;;;;;;;;;;2615123;54;20138;-69
2021/08/15 07:51:46;;;;;;;3.95;2.67;;;;;;;;;;2615539;47;20053;-68
2021/08/15 07:54:11;;;;;;;5.78;2.70;;;;;;;;;;2616273;54;20046;-68
2021/08/15 07:56:37;;;;;;;3.42;2.58;;;;;;;;;;2615825;54;20021;-70
2021/08/15 07:59:02;;;;;;;7.38;2.67;;;;;;;;;;2615592;47;20038;-70
2021/08/15 08:01:27;;;;;;;3.83;2.47;;;;;;;;;;2616199;54;20046;-69
2021/08/15 08:03:53;;;;;;;4.15;2.83;;;;;;;;;;2616415;54;20162;-69
2021/08/15 08:06:18;;;;;;;3.67;2.33;;;;;;;;;;2615689;54;20014;-69
2021/08/15 08:08:44;;;;;;;3.28;2.25;;;;;;;;;;2616398;54;20098;-69
2021/08/15 08:11:09;;;;;;;3.35;2.22;;;;;;;;;;2615917;54;20038;-69
2021/08/15 08:13:35;;;;;;;3.65;2.72;;;;;;;;;;2616417;54;20121;-69
2021/08/15 08:16:01;;;;;;;4.82;2.33;;;;;;;;;;2616426;54;20034;-69
2021/08/15 08:18:27;;;;;;;2.55;1.88;;;;;;;;;;2616131;54;20023;-69
2021/08/15 08:20:52;;;;;;;4.10;2.40;;;;;;;;;;2616243;54;20026;-70
2021/08/15 08:23:18;;;;;;;4.68;2.95;;;;;;;;;;2615988;54;20015;-70
2021/08/15 08:25:45;;;;;;;3.90;2.15;;;;;;;;;;2616131;54;20026;-69
2021/08/15 08:28:12;;;;;;;2.17;1.65;;;;;;;;;;2616555;54;20469;-70
2021/08/15 08:30:37;;;;;;;2.28;1.52;;;;;;;;;;2615971;39;20329;-71
2021/08/15 08:33:03;;;;;;;2.70;1.80;;;;;;;;;;2616470;54;20017;-71
2021/08/15 08:35:29;;;;;;;4.65;2.53;;;;;;;;;;2615962;54;20049;-70
2021/08/15 08:37:54;;;;;;;2.72;2.08;;;;;;;;;;2616332;54;20011;-69
2021/08/15 08:40:21;;;;;;;3.97;2.50;;;;;;;;;;2616089;54;20014;-69
2021/08/15 08:42:47;;;;;;;3.20;2.55;;;;;;;;;;2616348;54;20019;-71
2021/08/15 08:45:15;;;;;;;2.97;2.10;;;;;;;;;;2615926;54;20026;-70
2021/08/15 08:47:41;;;;;;;3.30;2.38;;;;;;;;;;2615732;54;20057;-69
2021/08/15 08:50:07;;;;;;;3.63;2.28;;;;;;;;;;2616059;54;20134;-69
2021/08/15 08:52:33;;;;;;;2.80;1.92;;;;;;;;;;2616110;54;20022;-68
2021/08/15 08:55:01;;;;;;;2.70;1.90;;;;;;;;;;2616002;54;20035;-69
2021/08/15 08:57:27;;;;;;;3.80;2.47;;;;;;;;;;2616484;54;20027;-68
2021/08/15 08:59:53;;;;;;;3.80;2.25;;;;;;;;;;2616289;54;20102;-69
2021/08/15 09:02:19;;;;;;;5.70;2.28;;;;;;;;;;2615701;54;20026;-69
2021/08/15 09:04:45;;;;;;;2.75;1.95;;;;;;;;;;2616329;54;20015;-62
2021/08/15 09:07:16;;;;;;;2.33;1.67;;;;;;;;;;2616176;54;20021;-62
2021/08/15 09:09:59;;;;;;;4.40;2.05;;;;;;;;;;2616030;54;20011;-61
2021/08/15 09:12:44;;;;;;;2.72;2.22;;;;;;;;;;2616444;39;20751;-61
2021/08/15 09:15:14;;;;;;;2.65;2.15;;;;;;;;;;2616171;54;20018;-61
2021/08/15 09:17:40;;;;;;;5.13;2.58;;;;;;;;;;2616084;54;20039;-62
2021/08/15 09:20:08;;;;;;;2.65;2.10;;;;;;;;;;2616071;54;20552;-62
2021/08/15 09:22:35;;;;;;;3.13;2.42;;;;;;;;;;2615947;54;20018;-62
2021/08/15 09:25:00;;;;;;;3.00;2.20;;;;;;;;;;2616300;54;20021;-61
2021/08/15 09:27:28;;;;;;;4.25;2.58;;;;;;;;;;2616050;54;20010;-62
2021/08/15 09:30:11;;;;;;;2.85;2.33;;;;;;;;;;2615882;54;20033;-62
2021/08/15 09:32:58;;;;;;;6.50;2.55;;;;;;;;;;2616164;54;20022;-61
2021/08/15 09:35:37;;;;;;;3.13;2.47;;;;;;;;;;2616087;54;20003;-61
2021/08/15 09:38:13;;;;;;;5.97;3.15;;;;;;;;;;2616448;54;20026;-62
2021/08/15 09:40:39;;;;;;;3.80;2.67;;;;;;;;;;2615623;54;20489;-62
2021/08/15 09:43:19;;;;;;;3.28;2.33;;;;;;;;;;2616323;54;20038;-61
2021/08/15 09:45:47;;;;;;;3.03;2.08;;;;;;;;;;2615869;54;20026;-61
2021/08/15 09:48:24;;;;;;;2.45;1.90;;;;;;;;;;2615628;54;20122;-61
2021/08/15 09:51:11;;;;;;;3.10;2.10;;;;;;;;;;2615887;54;20059;-62
2021/08/15 09:54:00;;;;;;;2.40;1.80;;;;;;;;;;2616011;54;20022;-62
2021/08/15 09:56:34;;;;;;;2.50;1.97;;;;;;;;;;2615878;54;20018;-62
2021/08/15 09:59:12;;;;;;;2.40;2.00;;;;;;;;;;2615880;54;20472;-62
2021/08/15 10:01:39;;;;;;;2.67;2.00;;;;;;;;;;2615700;54;20106;-61
2021/08/15 10:04:04;;;;;;;2.50;2.10;;;;;;;;;;2616107;54;20014;-61
2021/08/15 10:06:30;;;;;;;4.18;2.60;;;;;;;;;;2615697;54;20022;-61
2021/08/15 10:08:57;;;;;;;3.28;2.53;;;;;;;;;;2615995;54;20002;-61
2021/08/15 10:11:22;;;;;;;5.00;2.90;;;;;;;;;;2615734;54;20011;-61
2021/08/15 10:13:48;;;;;;;2.85;2.17;;;;;;;;;;2615977;47;20031;-62
2021/08/15 10:16:14;;;;;;;2.90;2.38;;;;;;;;;;2616130;54;20473;-61
2021/08/15 10:18:42;;;;;;;3.85;2.10;;;;;;;;;;2615944;54;20037;-61
2021/08/15 10:21:12;;;;;;;4.45;2.75;;;;;;;;;;2615706;54;20019;-61
2021/08/15 10:23:40;;;;;;;3.20;2.40;;;;;;;;;;2615891;54;20469;-61
2021/08/15 10:26:30;;;;;;;3.17;2.67;;;;;;;;;;2616007;54;20029;-61
2021/08/15 10:28:56;;;;;;;4.10;3.70;;;;;;;;;;2615995;54;20015;-61
2021/08/15 10:31:22;;;;;;;2.90;2.28;;;;;;;;;;2615504;54;20022;-61
2021/08/15 10:33:55;;;;;;;3.13;2.83;;;;;;;;;;2615929;54;20723;-61
2021/08/15 10:36:33;;;;;;;3.03;2.70;;;;;;;;;;2615492;54;20018;-61
2021/08/15 10:39:00;;;;;;;3.53;2.70;;;;;;;;;;2615710;54;20061;-61
2021/08/15 10:41:44;;;;;;;3.05;2.65;;;;;;;;;;2615921;39;20425;-61
2021/08/15 10:44:10;;;;;;;2.72;2.25;;;;;;;;;;2615966;54;20097;-61
2021/08/15 10:46:37;;;;;;;4.82;2.35;;;;;;;;;;2615918;54;20003;-62
2021/08/15 10:49:07;;;;;;;3.33;2.90;;;;;;;;;;2615718;54;20039;-60
2021/08/15 10:51:47;;;;;;;3.72;3.28;;;;;;;;;;2615602;54;20049;-62
2021/08/15 10:54:28;;;;;;;3.05;2.70;;;;;;;;;;2613887;54;20022;-59
2021/08/15 10:57:02;;;;;;;3.50;2.60;;;;;;;;;;2615153;54;20018;-60
2021/08/15 10:59:31;;;;;;;3.80;3.33;;;;;;;;;;2615455;54;20066;-60
2021/08/15 11:02:07;;;;;;;4.80;3.45;;;;;;;;;;2614897;54;20026;-60
2021/08/15 11:04:33;;;;;;;4.72;2.90;;;;;;;;;;2615359;54;20019;-60
2021/08/15 11:06:58;;;;;;;2.88;2.20;;;;;;;;;;2615668;54;20014;-61
2021/08/15 11:09:23;;;;;;;2.90;1.95;;;;;;;;;;2614928;54;20031;-61
2021/08/15 11:12:15;;;;;;;2.33;1.63;;;;;;;;;;2616059;39;20389;-61
2021/08/15 11:14:57;;;;;;;2.97;2.25;;;;;;;;;;2615337;54;20015;-61
2021/08/15 11:17:24;;;;;;;4.68;2.72;;;;;;;;;;2615553;47;20023;-61
2021/08/15 11:19:50;;;;;;;3.30;2.60;;;;;;;;;;2615077;54;20027;-61
2021/08/15 11:22:21;;;;;;;3.28;2.47;;;;;;;;;;2615635;54;20041;-61
2021/08/15 11:24:53;;;;;;;3.42;2.45;;;;;;;;;;2615488;54;20017;-61
2021/08/15 11:27:18;;;;;;;3.15;2.53;;;;;;;;;;2616264;54;20018;-61
2021/08/15 11:29:45;;;;;;;2.83;2.25;;;;;;;;;;2616322;54;20094;-61
2021/08/15 11:32:17;;;;;;;3.70;2.67;;;;;;;;;;2616300;54;20042;-61
2021/08/15 11:34:53;;;;;;;2.97;2.63;;;;;;;;;;2616759;31;20698;-60
2021/08/15 11:37:20;;;;;;;3.13;2.38;;;;;;;;;;2616239;39;20348;-60
2021/08/15 11:39:46;;;;;;;2.85;2.10;;;;;;;;;;2616814;39;20356;-61
2021/08/15 11:42:25;;;;;;;3.25;2.50;;;;;;;;;;2616057;54;20042;-61
2021/08/15 11:45:00;;;;;;;3.03;2.72;;;;;;;;;;2615803;54;20029;-62
2021/08/15 11:47:31;;;;;;;3.58;2.92;;;;;;;;;;2616231;54;20015;-62
2021/08/15 11:50:00;;;;;;;2.95;2.65;;;;;;;;;;2615524;47;20035;-60
2021/08/15 11:52:36;;;;;;;3.90;2.72;;;;;;;;;;2616032;54;20023;-60
2021/08/15 11:55:09;;;;;;;2.83;2.50;;;;;;;;;;2615890;39;20671;-60
2021/08/15 11:57:54;;;;;;;2.80;2.30;;;;;;;;;;2616442;54;20010;-60
2021/08/15 12:00:31;;;;;;;3.85;2.30;;;;;;;;;;2616148;54;20472;-60
2021/08/15 12:03:03;;;;;;;3.15;2.83;;;;;;;;;;2615701;54;20121;-60
2021/08/15 12:05:29;;;;;;;3.53;3.22;;;;;;;;;;2615707;54;20011;-60
2021/08/15 12:08:06;;;;;;;3.10;2.78;;;;;;;;;;2616380;54;20014;-60
2021/08/15 12:10:36;;;;;;;3.03;2.72;;;;;;;;;;2615987;54;20069;-60
2021/08/15 12:13:19;;;;;;;4.53;2.72;;;;;;;;;;2616322;54;20504;-60
2021/08/15 12:15:59;;;;;;;3.55;2.95;;;;;;;;;;2616038;54;20021;-59
2021/08/15 12:18:26;;;;;;;2.78;2.10;;;;;;;;;;2615697;54;20018;-60
2021/08/15 12:20:52;;;;;;;3.50;3.10;;;;;;;;;;2616198;54;20010;-60
2021/08/15 12:23:17;;;;;;;3.95;3.00;;;;;;;;;;2616118;54;20038;-59
2021/08/15 12:25:43;;;;;;;3.45;2.40;;;;;;;;;;2615991;54;20034;-60
2021/08/15 12:28:12;;;;;;;2.85;2.35;;;;;;;;;;2616063;54;20023;-60
2021/08/15 12:30:39;;;;;;;3.20;2.90;;;;;;;;;;2616046;54;20015;-60
2021/08/15 12:33:24;;;;;;;3.10;2.80;;;;;;;;;;2615977;54;20599;-60
2021/08/15 12:35:49;;;;;;;2.97;2.67;;;;;;;;;;2615937;54;20015;-61
2021/08/15 12:38:29;;;;;;;2.97;2.67;;;;;;;;;;2615900;54;20110;-60
2021/08/15 12:40:54;;;;;;;3.03;2.72;;;;;;;;;;2615853;54;20018;-60
2021/08/15 12:43:26;;;;;;;3.40;2.83;;;;;;;;;;2615535;54;20025;-60
2021/08/15 12:45:52;;;;;;;3.40;3.10;;;;;;;;;;2615551;54;20614;-62
2021/08/15 12:48:18;;;;;;;3.67;3.38;;;;;;;;;;2616210;54;20090;-62
2021/08/15 12:50:45;;;;;;;3.67;3.38;;;;;;;;;;2616191;54;20017;-61
2021/08/15 12:53:21;;;;;;;3.75;3.35;;;;;;;;;;2616195;54;20013;-61
2021/08/15 12:55:49;;;;;;;3.53;3.13;;;;;;;;;;2616334;54;20035;-60
2021/08/15 12:58:15;;;;;;;3.50;3.20;;;;;;;;;;2616121;54;20041;-59
2021/08/15 13:00:46;;;;;;;4.15;2.95;;;;;;;;;;2616075;54;20018;-60
2021/08/15 13:03:14;;;;;;;2.95;2.65;;;;;;;;;;2616635;39;20672;-60
2021/08/15 13:05:41;;;;;;;3.63;2.67;;;;;;;;;;2616177;54;20022;-60
2021/08/15 13:08:08;;;;;;;3.40;2.85;;;;;;;;;;2616293;54;20007;-59
2021/08/15 13:10:35;;;;;;;3.42;3.13;;;;;;;;;;2616408;39;20366;-60
2021/08/15 13:13:01;;;;;;;2.95;2.65;;;;;;;;;;2616223;54;20032;-60
2021/08/15 13:15:27;;;;;;;2.95;2.65;;;;;;;;;;2616445;39;20479;-60
2021/08/15 13:17:54;;;;;;;2.78;2.40;;;;;;;;;;2616207;54;20126;-60
2021/08/15 13:20:22;;;;;;;2.92;2.60;;;;;;;;;;2616136;54;20022;-60
2021/08/15 13:22:48;;;;;;;2.75;2.40;;;;;;;;;;2616543;54;20017;-60
2021/08/15 13:25:15;;;;;;;2.80;2.40;;;;;;;;;;2616345;54;20018;-60
2021/08/15 13:27:41;;;;;;;6.78;2.60;;;;;;;;;;2615890;54;20022;-60
2021/08/15 13:30:08;;;;;;;3.47;3.10;;;;;;;;;;2615564;54;20033;-60
2021/08/15 13:32:33;;;;;;;3.58;3.28;;;;;;;;;;2616197;54;20003;-60
2021/08/15 13:34:58;;;;;;;3.15;2.85;;;;;;;;;;2616168;54;20019;-60
2021/08/15 13:37:26;;;;;;;3.38;3.08;;;;;;;;;;2615138;54;20045;-60
2021/08/15 13:39:53;;;;;;;3.65;3.10;;;;;;;;;;2616065;54;20023;-59
2021/08/15 13:42:21;;;;;;;3.20;2.90;;;;;;;;;;2615648;54;20021;-59
2021/08/15 13:44:47;;;;;;;3.75;3.35;;;;;;;;;;2616174;54;20021;-59
2021/08/15 13:47:12;;;;;;;2.85;2.55;;;;;;;;;;2616226;31;20552;-60
2021/08/15 13:49:38;;;;;;;3.40;3.10;;;;;;;;;;2615883;54;20025;-60
2021/08/15 13:52:03;;;;;;;3.50;3.20;;;;;;;;;;2616058;54;20088;-60
2021/08/15 13:54:29;;;;;;;3.47;3.17;;;;;;;;;;2615745;54;20106;-60
2021/08/15 13:56:54;;;;;;;3.30;3.00;;;;;;;;;;2616084;54;20015;-59
2021/08/15 13:59:20;;;;;;;3.17;2.88;;;;;;;;;;2616195;54;20028;-60
2021/08/15 14:01:45;;;;;;;4.10;3.10;;;;;;;;;;2615912;39;20340;-60
2021/08/15 14:04:10;;;;;;;3.03;2.70;;;;;;;;;;2616116;54;20098;-60
2021/08/15 14:06:40;;;;;;;6.55;2.85;;;;;;;;;;2615789;54;20033;-60
2021/08/15 14:09:07;;;;;;;3.60;3.08;;;;;;;;;;2615710;54;20058;-60
2021/08/15 14:11:33;;;;;;;3.25;2.95;;;;;;;;;;2615904;54;20034;-60
2021/08/15 14:13:58;;;;;;;3.55;3.20;;;;;;;;;;2615554;39;20409;-60
2021/08/15 14:16:24;;;;;;;3.92;3.53;;;;;;;;;;2615932;54;20011;-60
2021/08/15 14:18:50;;;;;;;3.28;2.97;;;;;;;;;;2615611;54;20030;-60
2021/08/15 14:21:15;;;;;;;3.20;2.90;;;;;;;;;;2616101;54;20043;-60
2021/08/15 14:23:43;;;;;;;2.83;2.50;;;;;;;;;;2615695;54;20030;-60
2021/08/15 14:26:09;;;;;;;3.50;3.20;;;;;;;;;;2615888;54;20011;-60
2021/08/15 14:28:34;;;;;;;3.53;3.10;;;;;;;;;;2615662;54;20034;-60
2021/08/15 14:31:00;;;;;;;3.30;3.00;;;;;;;;;;2615596;54;20026;-59
2021/08/15 14:33:26;;;;;;;3.50;3.20;;;;;;;;;;2615515;54;20499;-59
2021/08/15 14:35:52;;;;;;;3.40;3.10;;;;;;;;;;2615853;54;20058;-60
2021/08/15 14:38:19;;;;;;;3.25;2.90;;;;;;;;;;2616137;54;20480;-60
2021/08/15 14:40:44;;;;;;;3.88;2.97;;;;;;;;;;2615612;54;20027;-60
2021/08/15 14:43:10;;;;;;;3.80;3.40;;;;;;;;;;2615699;54;20057;-60
2021/08/15 14:45:35;;;;;;;3.20;2.80;;;;;;;;;;2615547;54;20015;-60